sensor_id;sensor_type;location;lat;lon;timestamp;pressure;altitude;pressure_sealevel;temperature;humidity
13422;BME280;6782;55.904;13.396;2023-03-05T00:00:03;100037.13;;;0.13;89.34
13422;BME280;6782;55.904;13.396;2023-03-05T00:02:50;100092.44;;;0.12;90.92
13422;BME280;6782;55.904;13.396;2023-03-05T00:05:37;100137.28;;;0.04;92.57
13422;BME280;6782;55.904;13.396;2023-03-05T00:08:26;100166.56;;;-0.05;94.26
13422;BME280;6782;55.904;13.396;2023-03-05T00:11:14;100226.16;;;-0.05;96.75
13422;BME280;6782;55.904;13.396;2023-03-05T00:14:03;100270.25;;;-0.02;99.48
13422;BME280;6782;55.904;13.396;2023-03-05T00:16:51;100313.44;;;-0.04;100.00
13422;BME280;6782;55.904;13.396;2023-03-05T00:19:38;100347.13;;;-0.04;100.00
13422;BME280;6782;55.904;13.396;2023-03-05T00:22:25;100367.88;;;-0.03;100.00
13422;BME280;6782;55.904;13.396;2023-03-05T00:25:13;100399.84;;;-0.04;100.00
13422;BME280;6782;55.904;13.396;2023-03-05T00:28:01;100419.81;;;0.04;100.00
13422;BME280;6782;55.904;13.396;2023-03-05T00:30:49;100432.97;;;0.17;100.00
13422;BME280;6782;55.904;13.396;2023-03-05T00:33:36;100431.50;;;0.37;100.00
13422;BME280;6782;55.904;13.396;2023-03-05T00:36:23;100373.50;;;0.34;100.00
13422;BME280;6782;55.904;13.396;2023-03-05T00:39:11;100332.75;;;0.22;100.00
13422;BME280;6782;55.904;13.396;2023-03-05T00:41:59;100278.34;;;0.27;100.00
13422;BME280;6782;55.904;13.396;2023-03-05T00:44:48;100298.13;;;0.17;100.00
13422;BME280;6782;55.904;13.396;2023-03-05T00:47:36;100358.56;;;0.13;100.00
13422;BME280;6782;55.904;13.396;2023-03-05T00:50:23;100380.13;;;0.09;100.00
13422;BME280;6782;55.904;13.396;2023-03-05T00:53:11;100396.50;;;0.05;100.00
13422;BME280;6782;55.904;13.396;2023-03-05T00:55:58;100417.16;;;-0.01;100.00
13422;BME280;6782;55.904;13.396;2023-03-05T00:58:45;100428.31;;;-0.07;100.00
13422;BME280;6782;55.904;13.396;2023-03-05T01:01:34;100449.97;;;-0.03;100.00
13422;BME280;6782;55.904;13.396;2023-03-05T01:04:22;100449.81;;;-0.12;100.00
13422;BME280;6782;55.904;13.396;2023-03-05T01:07:09;100460.22;;;-0.09;100.00
13422;BME280;6782;55.904;13.396;2023-03-05T01:09:56;100446.34;;;-0.14;100.00
13422;BME280;6782;55.904;13.396;2023-03-05T01:12:43;100465.31;;;-0.15;100.00
13422;BME280;6782;55.904;13.396;2023-03-05T01:15:31;100472.25;;;-0.14;100.00
13422;BME280;6782;55.904;13.396;2023-03-05T01:18:20;100465.34;;;-0.12;100.00
13422;BME280;6782;55.904;13.396;2023-03-05T01:21:08;100455.81;;;-0.16;100.00
13422;BME280;6782;55.904;13.396;2023-03-05T01:23:55;100433.94;;;-0.33;100.00
13422;BME280;6782;55.904;13.396;2023-03-05T01:26:43;100433.03;;;-0.37;100.00
13422;BME280;6782;55.904;13.396;2023-03-05T01:29:30;100417.41;;;-0.43;100.00
13422;BME280;6782;55.904;13.396;2023-03-05T01:32:17;100424.16;;;-0.51;100.00
13422;BME280;6782;55.904;13.396;2023-03-05T01:35:07;100436.44;;;-0.39;100.00
13422;BME280;6782;55.904;13.396;2023-03-05T01:37:55;100456.38;;;-0.35;100.00
13422;BME280;6782;55.904;13.396;2023-03-05T01:40:43;100445.09;;;-0.39;100.00
13422;BME280;6782;55.904;13.396;2023-03-05T01:43:30;100424.81;;;-0.66;100.00
13422;BME280;6782;55.904;13.396;2023-03-05T01:46:27;100429.22;;;-0.60;100.00
13422;BME280;6782;55.904;13.396;2023-03-05T01:49:20;100421.31;;;-0.68;100.00
13422;BME280;6782;55.904;13.396;2023-03-05T01:52:13;100424.69;;;-0.72;100.00
13422;BME280;6782;55.904;13.396;2023-03-05T01:55:04;100433.09;;;-0.85;100.00
13422;BME280;6782;55.904;13.396;2023-03-05T01:57:53;100427.03;;;-0.87;100.00
13422;BME280;6782;55.904;13.396;2023-03-05T02:00:44;100414.56;;;-1.09;100.00
13422;BME280;6782;55.904;13.396;2023-03-05T02:03:32;100404.22;;;-1.09;100.00
13422;BME280;6782;55.904;13.396;2023-03-05T02:06:20;100377.31;;;-1.18;100.00
13422;BME280;6782;55.904;13.396;2023-03-05T02:09:09;100357.72;;;-1.04;100.00
13422;BME280;6782;55.904;13.396;2023-03-05T02:11:57;100319.72;;;-1.08;100.00
13422;BME280;6782;55.904;13.396;2023-03-05T02:14:47;100307.84;;;-0.94;100.00
13422;BME280;6782;55.904;13.396;2023-03-05T02:17:36;100280.09;;;-1.04;100.00
13422;BME280;6782;55.904;13.396;2023-03-05T02:20:26;100293.59;;;-1.22;100.00
13422;BME280;6782;55.904;13.396;2023-03-05T02:23:19;100272.69;;;-1.36;100.00
13422;BME280;6782;55.904;13.396;2023-03-05T02:26:09;100280.41;;;-1.37;100.00
13422;BME280;6782;55.904;13.396;2023-03-05T02:28:58;100280.53;;;-1.31;100.00
13422;BME280;6782;55.904;13.396;2023-03-05T02:31:47;100275.38;;;-1.31;100.00
13422;BME280;6782;55.904;13.396;2023-03-05T02:34:35;100256.97;;;-1.46;100.00
13422;BME280;6782;55.904;13.396;2023-03-05T02:37:22;100242.47;;;-1.38;100.00
13422;BME280;6782;55.904;13.396;2023-03-05T02:40:12;100230.41;;;-1.36;100.00
13422;BME280;6782;55.904;13.396;2023-03-05T02:42:59;100230.41;;;-1.36;100.00
13422;BME280;6782;55.904;13.396;2023-03-05T02:45:46;100215.78;;;-1.37;100.00
13422;BME280;6782;55.904;13.396;2023-03-05T02:48:33;100201.16;;;-1.35;100.00
13422;BME280;6782;55.904;13.396;2023-03-05T02:51:21;100178.75;;;-1.33;100.00
13422;BME280;6782;55.904;13.396;2023-03-05T02:54:08;100160.59;;;-1.36;100.00
13422;BME280;6782;55.904;13.396;2023-03-05T02:56:57;100142.25;;;-1.54;100.00
13422;BME280;6782;55.904;13.396;2023-03-05T02:59:44;100140.31;;;-1.67;100.00
13422;BME280;6782;55.904;13.396;2023-03-05T03:02:32;100118.00;;;-1.62;100.00
13422;BME280;6782;55.904;13.396;2023-03-05T03:05:19;100113.72;;;-1.60;100.00
13422;BME280;6782;55.904;13.396;2023-03-05T03:08:06;100111.06;;;-1.65;100.00
13422;BME280;6782;55.904;13.396;2023-03-05T03:10:53;100123.22;;;-1.59;100.00
13422;BME280;6782;55.904;13.396;2023-03-05T03:13:42;100119.53;;;-1.73;100.00
13422;BME280;6782;55.904;13.396;2023-03-05T03:16:29;100134.22;;;-1.69;100.00
13422;BME280;6782;55.904;13.396;2023-03-05T03:19:16;100148.91;;;-1.68;100.00
13422;BME280;6782;55.904;13.396;2023-03-05T03:22:05;100151.22;;;-1.85;100.00
13422;BME280;6782;55.904;13.396;2023-03-05T03:24:52;100148.66;;;-1.83;100.00
13422;BME280;6782;55.904;13.396;2023-03-05T03:27:40;100157.22;;;-1.87;100.00
13422;BME280;6782;55.904;13.396;2023-03-05T03:30:29;100151.88;;;-1.97;100.00
13422;BME280;6782;55.904;13.396;2023-03-05T03:33:16;100169.00;;;-2.02;100.00
13422;BME280;6782;55.904;13.396;2023-03-05T03:36:04;100163.72;;;-2.09;100.00
13422;BME280;6782;55.904;13.396;2023-03-05T03:38:52;100163.69;;;-2.11;100.00
13422;BME280;6782;55.904;13.396;2023-03-05T03:41:41;100163.72;;;-2.09;100.00
13422;BME280;6782;55.904;13.396;2023-03-05T03:44:28;100173.16;;;-2.11;100.00
13422;BME280;6782;55.904;13.396;2023-03-05T03:47:18;100180.81;;;-2.16;100.00
13422;BME280;6782;55.904;13.396;2023-03-05T03:50:06;100185.13;;;-2.15;100.00
13422;BME280;6782;55.904;13.396;2023-03-05T03:52:53;100195.53;;;-2.10;100.00
13422;BME280;6782;55.904;13.396;2023-03-05T03:55:41;100204.25;;;-2.05;100.00
13422;BME280;6782;55.904;13.396;2023-03-05T03:58:29;100203.41;;;-2.06;100.00
13422;BME280;6782;55.904;13.396;2023-03-05T04:01:17;100208.56;;;-2.06;100.00
13422;BME280;6782;55.904;13.396;2023-03-05T04:04:05;100215.44;;;-2.05;100.00
13422;BME280;6782;55.904;13.396;2023-03-05T04:06:53;100215.38;;;-2.08;100.00
13422;BME280;6782;55.904;13.396;2023-03-05T04:09:40;100210.28;;;-2.05;100.00
13422;BME280;6782;55.904;13.396;2023-03-05T04:12:28;100212.03;;;-2.04;100.00
13422;BME280;6782;55.904;13.396;2023-03-05T04:15:15;100215.38;;;-2.08;100.00
13422;BME280;6782;55.904;13.396;2023-03-05T04:18:02;100224.81;;;-2.11;100.00
13422;BME280;6782;55.904;13.396;2023-03-05T04:20:51;100233.44;;;-2.11;100.00
13422;BME280;6782;55.904;13.396;2023-03-05T04:23:39;100227.34;;;-2.13;100.00
13422;BME280;6782;55.904;13.396;2023-03-05T04:26:26;100236.88;;;-2.10;100.00
13422;BME280;6782;55.904;13.396;2023-03-05T04:29:13;100243.78;;;-2.09;100.00
13422;BME280;6782;55.904;13.396;2023-03-05T04:32:01;100241.13;;;-2.14;100.00
13422;BME280;6782;55.904;13.396;2023-03-05T04:34:48;100248.06;;;-2.10;100.00
13422;BME280;6782;55.904;13.396;2023-03-05T04:37:37;100244.53;;;-2.15;100.00
13422;BME280;6782;55.904;13.396;2023-03-05T04:40:24;100239.25;;;-2.21;100.00
13422;BME280;6782;55.904;13.396;2023-03-05T04:43:12;100230.44;;;-2.32;100.00
13422;BME280;6782;55.904;13.396;2023-03-05T04:45:59;100237.31;;;-2.32;100.00
13422;BME280;6782;55.904;13.396;2023-03-05T04:48:47;100246.66;;;-2.37;100.00
13422;BME280;6782;55.904;13.396;2023-03-05T04:51:34;100244.06;;;-2.39;100.00
13422;BME280;6782;55.904;13.396;2023-03-05T04:54:23;100249.16;;;-2.42;100.00
13422;BME280;6782;55.904;13.396;2023-03-05T04:57:11;100247.34;;;-2.46;100.00
13422;BME280;6782;55.904;13.396;2023-03-05T04:59:58;100246.34;;;-2.53;100.00
13422;BME280;6782;55.904;13.396;2023-03-05T05:02:47;100245.31;;;-2.61;100.00
13422;BME280;6782;55.904;13.396;2023-03-05T05:05:35;100248.72;;;-2.63;100.00
13422;BME280;6782;55.904;13.396;2023-03-05T05:08:23;100247.75;;;-2.68;100.00
13422;BME280;6782;55.904;13.396;2023-03-05T05:11:13;100252.88;;;-2.70;100.00
13422;BME280;6782;55.904;13.396;2023-03-05T05:14:00;100257.09;;;-2.73;100.00
13422;BME280;6782;55.904;13.396;2023-03-05T05:16:48;100261.22;;;-2.80;100.00
13422;BME280;6782;55.904;13.396;2023-03-05T05:19:35;100264.75;;;-2.78;100.00
13422;BME280;6782;55.904;13.396;2023-03-05T05:22:22;100276.31;;;-2.59;100.00
13422;BME280;6782;55.904;13.396;2023-03-05T05:25:10;100281.47;;;-2.59;100.00
13422;BME280;6782;55.904;13.396;2023-03-05T05:27:59;100277.88;;;-2.67;100.00
13422;BME280;6782;55.904;13.396;2023-03-05T05:30:46;100277.97;;;-2.63;100.00
13422;BME280;6782;55.904;13.396;2023-03-05T05:33:34;100285.66;;;-2.66;100.00
13422;BME280;6782;55.904;13.396;2023-03-05T05:36:21;100283.03;;;-2.67;100.00
13422;BME280;6782;55.904;13.396;2023-03-05T05:39:08;100275.97;;;-2.76;100.00
13422;BME280;6782;55.904;13.396;2023-03-05T05:41:56;100280.94;;;-2.83;100.00
13422;BME280;6782;55.904;13.396;2023-03-05T05:44:44;100286.03;;;-2.86;100.00
13422;BME280;6782;55.904;13.396;2023-03-05T05:47:32;100291.91;;;-2.93;100.00
13422;BME280;6782;55.904;13.396;2023-03-05T05:50:20;100287.38;;;-3.03;100.00
13422;BME280;6782;55.904;13.396;2023-03-05T05:53:08;100292.44;;;-3.06;100.00
13422;BME280;6782;55.904;13.396;2023-03-05T05:55:55;100296.56;;;-3.13;100.00
13422;BME280;6782;55.904;13.396;2023-03-05T05:58:46;100302.69;;;-3.09;100.00
13422;BME280;6782;55.904;13.396;2023-03-05T06:01:36;100293.09;;;-3.15;100.00
13422;BME280;6782;55.904;13.396;2023-03-05T06:04:23;100305.09;;;-3.16;100.00
13422;BME280;6782;55.904;13.396;2023-03-05T06:07:10;100310.34;;;-3.12;100.00
13422;BME280;6782;55.904;13.396;2023-03-05T06:09:57;100325.88;;;-3.11;100.00
13422;BME280;6782;55.904;13.396;2023-03-05T06:12:45;100329.38;;;-3.07;100.00
13422;BME280;6782;55.904;13.396;2023-03-05T06:15:32;100333.72;;;-3.06;100.00
13422;BME280;6782;55.904;13.396;2023-03-05T06:18:21;100341.44;;;-3.06;100.00
13422;BME280;6782;55.904;13.396;2023-03-05T06:21:11;100344.81;;;-3.09;100.00
13422;BME280;6782;55.904;13.396;2023-03-05T06:23:59;100361.22;;;-3.05;100.00
13422;BME280;6782;55.904;13.396;2023-03-05T06:26:46;100366.53;;;-2.99;100.00
13422;BME280;6782;55.904;13.396;2023-03-05T06:29:34;100369.13;;;-2.99;100.00
13422;BME280;6782;55.904;13.396;2023-03-05T06:32:21;100368.38;;;-2.95;100.00
13422;BME280;6782;55.904;13.396;2023-03-05T06:35:10;100374.56;;;-2.89;100.00
13422;BME280;6782;55.904;13.396;2023-03-05T06:37:58;100378.13;;;-2.82;100.00
13422;BME280;6782;55.904;13.396;2023-03-05T06:40:46;100377.31;;;-2.81;100.00
13422;BME280;6782;55.904;13.396;2023-03-05T06:43:33;100382.56;;;-2.78;100.00
13422;BME280;6782;55.904;13.396;2023-03-05T06:46:23;100387.00;;;-2.71;100.00
13422;BME280;6782;55.904;13.396;2023-03-05T06:49:10;100387.06;;;-2.70;100.00
13422;BME280;6782;55.904;13.396;2023-03-05T06:51:59;100391.44;;;-2.67;100.00
13422;BME280;6782;55.904;13.396;2023-03-05T06:54:47;100389.88;;;-2.59;100.00
13422;BME280;6782;55.904;13.396;2023-03-05T06:57:35;100384.66;;;-2.62;100.00
13422;BME280;6782;55.904;13.396;2023-03-05T07:00:22;100389.88;;;-2.59;100.00
13422;BME280;6782;55.904;13.396;2023-03-05T07:03:14;100396.97;;;-2.50;100.00
13422;BME280;6782;55.904;13.396;2023-03-05T07:06:03;100404.97;;;-2.40;100.00
13422;BME280;6782;55.904;13.396;2023-03-05T07:08:53;100413.03;;;-2.26;100.00
13422;BME280;6782;55.904;13.396;2023-03-05T07:11:40;100420.94;;;-2.19;100.00
13422;BME280;6782;55.904;13.396;2023-03-05T07:14:28;100411.53;;;-2.17;100.00
13422;BME280;6782;55.904;13.396;2023-03-05T07:17:15;100416.03;;;-2.08;100.00
13422;BME280;6782;55.904;13.396;2023-03-05T07:20:03;100408.44;;;-2.01;100.00
13422;BME280;6782;55.904;13.396;2023-03-05T07:22:50;100415.94;;;-1.72;100.00
13422;BME280;6782;55.904;13.396;2023-03-05T07:25:39;100397.69;;;-1.78;100.00
13422;BME280;6782;55.904;13.396;2023-03-05T07:28:26;100395.28;;;-1.71;100.00
13422;BME280;6782;55.904;13.396;2023-03-05T07:31:16;100415.91;;;-1.29;100.00
13422;BME280;6782;55.904;13.396;2023-03-05T07:34:05;100399.66;;;-1.22;100.00
13422;BME280;6782;55.904;13.396;2023-03-05T07:36:52;100396.44;;;-1.09;100.00
13422;BME280;6782;55.904;13.396;2023-03-05T07:39:40;100392.84;;;-0.68;100.00
13422;BME280;6782;55.904;13.396;2023-03-05T07:42:29;100360.88;;;-0.70;100.00
13422;BME280;6782;55.904;13.396;2023-03-05T07:45:16;100341.50;;;-0.37;100.00
13422;BME280;6782;55.904;13.396;2023-03-05T07:48:04;100308.81;;;-0.29;100.00
13422;BME280;6782;55.904;13.396;2023-03-05T07:50:59;100273.50;;;-0.21;100.00
13422;BME280;6782;55.904;13.396;2023-03-05T07:53:48;100238.09;;;-0.21;100.00
13422;BME280;6782;55.904;13.396;2023-03-05T07:56:36;100208.81;;;-0.14;100.00
13422;BME280;6782;55.904;13.396;2023-03-05T07:59:25;100161.97;;;-0.32;100.00
13422;BME280;6782;55.904;13.396;2023-03-05T08:02:13;100148.38;;;-0.11;100.00
13422;BME280;6782;55.904;13.396;2023-03-05T08:05:00;100118.25;;;0.00;100.00
13422;BME280;6782;55.904;13.396;2023-03-05T08:07:48;100068.81;;;-0.21;100.00
13422;BME280;6782;55.904;13.396;2023-03-05T08:10:36;100051.69;;;-0.06;100.00
13422;BME280;6782;55.904;13.396;2023-03-05T08:13:23;100010.19;;;-0.07;100.00
13422;BME280;6782;55.904;13.396;2023-03-05T08:16:14;99975.63;;;-0.11;100.00
13422;BME280;6782;55.904;13.396;2023-03-05T08:19:01;99940.19;;;-0.10;100.00
13422;BME280;6782;55.904;13.396;2023-03-05T08:21:48;99910.03;;;-0.04;100.00
13422;BME280;6782;55.904;13.396;2023-03-05T08:24:35;99874.53;;;-0.18;100.00
13422;BME280;6782;55.904;13.396;2023-03-05T08:27:23;99826.09;;;-0.28;100.00
13422;BME280;6782;55.904;13.396;2023-03-05T08:30:12;99810.63;;;-0.18;100.00
13422;BME280;6782;55.904;13.396;2023-03-05T08:33:01;99776.09;;;-0.12;100.00
13422;BME280;6782;55.904;13.396;2023-03-05T08:35:49;99736.41;;;-0.08;100.00
13422;BME280;6782;55.904;13.396;2023-03-05T08:38:36;99709.63;;;0.08;100.00
13422;BME280;6782;55.904;13.396;2023-03-05T08:41:23;99659.53;;;0.09;100.00
13422;BME280;6782;55.904;13.396;2023-03-05T08:44:10;99599.94;;;0.06;100.00
13422;BME280;6782;55.904;13.396;2023-03-05T08:46:57;99554.13;;;0.00;100.00
13422;BME280;6782;55.904;13.396;2023-03-05T08:49:46;99539.47;;;0.28;100.00
13422;BME280;6782;55.904;13.396;2023-03-05T08:52:34;99521.22;;;0.49;100.00
13422;BME280;6782;55.904;13.396;2023-03-05T08:55:21;99451.25;;;0.43;100.00
13422;BME280;6782;55.904;13.396;2023-03-05T08:58:08;99376.91;;;0.44;100.00
13422;BME280;6782;55.904;13.396;2023-03-05T09:00:56;99341.38;;;0.59;100.00
13422;BME280;6782;55.904;13.396;2023-03-05T09:03:43;99319.63;;;0.82;100.00
13422;BME280;6782;55.904;13.396;2023-03-05T09:06:32;99250.38;;;0.87;100.00
13422;BME280;6782;55.904;13.396;2023-03-05T09:09:23;99140.59;;;0.80;100.00
13422;BME280;6782;55.904;13.396;2023-03-05T09:12:11;99080.81;;;0.91;100.00
13422;BME280;6782;55.904;13.396;2023-03-05T09:15:00;98966.75;;;0.85;100.00
13422;BME280;6782;55.904;13.396;2023-03-05T09:17:48;98896.47;;;1.00;100.00
13422;BME280;6782;55.904;13.396;2023-03-05T09:20:36;98812.44;;;1.05;100.00
13422;BME280;6782;55.904;13.396;2023-03-05T09:23:25;98782.59;;;1.32;100.00
13422;BME280;6782;55.904;13.396;2023-03-05T09:26:13;98764.03;;;1.52;100.00
13422;BME280;6782;55.904;13.396;2023-03-05T09:29:03;98572.94;;;1.42;100.00
13422;BME280;6782;55.904;13.396;2023-03-05T09:31:53;98419.03;;;1.35;100.00
13422;BME280;6782;55.904;13.396;2023-03-05T09:34:40;98330.66;;;1.40;100.00
13422;BME280;6782;55.904;13.396;2023-03-05T09:37:27;98343.78;;;1.67;100.00
13422;BME280;6782;55.904;13.396;2023-03-05T09:40:18;98226.66;;;1.76;100.00
13422;BME280;6782;55.904;13.396;2023-03-05T09:43:12;98075.34;;;1.68;100.00
13422;BME280;6782;55.904;13.396;2023-03-05T09:46:11;98000.66;;;1.76;100.00
13422;BME280;6782;55.904;13.396;2023-03-05T09:49:09;98006.19;;;1.92;100.00
13422;BME280;6782;55.904;13.396;2023-03-05T09:52:05;98014.00;;;2.18;100.00
13422;BME280;6782;55.904;13.396;2023-03-05T09:54:54;97730.69;;;1.95;100.00
13422;BME280;6782;55.904;13.396;2023-03-05T09:57:47;97643.97;;;1.98;100.00
13422;BME280;6782;55.904;13.396;2023-03-05T10:00:40;97554.72;;;1.99;100.00
13422;BME280;6782;55.904;13.396;2023-03-05T10:03:42;97547.47;;;2.07;100.00
13422;BME280;6782;55.904;13.396;2023-03-05T10:06:32;97419.38;;;2.05;100.00
13422;BME280;6782;55.904;13.396;2023-03-05T10:09:30;97484.84;;;2.13;100.00
13422;BME280;6782;55.904;13.396;2023-03-05T10:12:25;97370.00;;;2.05;100.00
13422;BME280;6782;55.904;13.396;2023-03-05T10:15:20;97211.00;;;1.97;100.00
13422;BME280;6782;55.904;13.396;2023-03-05T10:18:18;97260.66;;;2.09;100.00
13422;BME280;6782;55.904;13.396;2023-03-05T10:21:12;97239.38;;;2.20;100.00
13422;BME280;6782;55.904;13.396;2023-03-05T10:24:10;97136.47;;;2.16;100.00
13422;BME280;6782;55.904;13.396;2023-03-05T10:27:02;97109.28;;;2.23;100.00
13422;BME280;6782;55.904;13.396;2023-03-05T10:29:57;97035.44;;;2.27;99.22
13422;BME280;6782;55.904;13.396;2023-03-05T10:32:53;97079.63;;;2.44;99.47
13422;BME280;6782;55.904;13.396;2023-03-05T10:35:56;97246.13;;;2.78;99.79
13422;BME280;6782;55.904;13.396;2023-03-05T10:42:22;97112.31;;;2.67;97.71
13422;BME280;6782;55.904;13.396;2023-03-05T10:45:14;97087.13;;;2.67;97.21
13422;BME280;6782;55.904;13.396;2023-03-05T10:48:11;97018.16;;;2.60;96.91
13422;BME280;6782;55.904;13.396;2023-03-05T10:51:04;97259.13;;;2.95;98.14
13422;BME280;6782;55.904;13.396;2023-03-05T10:53:57;96918.81;;;2.53;95.25
13422;BME280;6782;55.904;13.396;2023-03-05T10:56:45;97265.00;;;3.00;97.61
13422;BME280;6782;55.904;13.396;2023-03-05T10:59:32;97068.16;;;2.82;95.54
13422;BME280;6782;55.904;13.396;2023-03-05T11:02:21;96772.88;;;2.44;93.16
13422;BME280;6782;55.904;13.396;2023-03-05T11:05:41;97045.38;;;2.70;94.43
13422;BME280;6782;55.904;13.396;2023-03-05T11:08:31;97168.53;;;3.03;93.81
13422;BME280;6782;55.904;13.396;2023-03-05T11:11:20;97087.53;;;3.09;92.84
13422;BME280;6782;55.904;13.396;2023-03-05T11:14:22;96818.09;;;2.73;91.09
13422;BME280;6782;55.904;13.396;2023-03-05T11:17:30;97005.78;;;3.13;91.00
13422;BME280;6782;55.904;13.396;2023-03-05T11:20:32;96745.03;;;2.77;89.06
13422;BME280;6782;55.904;13.396;2023-03-05T11:23:22;96739.84;;;2.77;88.71
13422;BME280;6782;55.904;13.396;2023-03-05T11:26:21;96848.28;;;2.91;88.90
13422;BME280;6782;55.904;13.396;2023-03-05T11:29:18;96975.78;;;3.06;90.06
13422;BME280;6782;55.904;13.396;2023-03-05T11:32:19;97375.09;;;3.20;91.63
13422;BME280;6782;55.904;13.396;2023-03-05T11:35:28;97655.84;;;3.08;89.21
13422;BME280;6782;55.904;13.396;2023-03-05T11:38:19;98612.19;;;3.07;88.42
13422;BME280;6782;55.904;13.396;2023-03-05T11:41:08;98712.25;;;2.96;87.12
13422;BME280;6782;55.904;13.396;2023-03-05T11:43:57;98811.53;;;3.17;87.39
13422;BME280;6782;55.904;13.396;2023-03-05T11:46:47;98753.44;;;2.80;86.20
13422;BME280;6782;55.904;13.396;2023-03-05T11:49:38;98808.78;;;2.88;86.13
13422;BME280;6782;55.904;13.396;2023-03-05T11:52:29;98954.72;;;3.19;87.69
13422;BME280;6782;55.904;13.396;2023-03-05T11:55:21;98826.03;;;2.92;85.81
13422;BME280;6782;55.904;13.396;2023-03-05T11:58:23;98853.84;;;2.90;85.39
13422;BME280;6782;55.904;13.396;2023-03-05T12:01:15;98858.97;;;2.93;84.83
13422;BME280;6782;55.904;13.396;2023-03-05T12:04:03;98882.22;;;3.02;84.62
13422;BME280;6782;55.904;13.396;2023-03-05T12:06:55;98791.94;;;2.66;83.39
13422;BME280;6782;55.904;13.396;2023-03-05T12:09:45;99013.00;;;3.13;85.25
13422;BME280;6782;55.904;13.396;2023-03-05T12:12:40;98949.75;;;3.08;84.55
13422;BME280;6782;55.904;13.396;2023-03-05T12:15:48;98955.47;;;3.26;84.49
13422;BME280;6782;55.904;13.396;2023-03-05T12:18:51;98957.50;;;3.11;84.50
13422;BME280;6782;55.904;13.396;2023-03-05T12:21:42;98864.34;;;2.86;82.98
13422;BME280;6782;55.904;13.396;2023-03-05T12:24:35;99013.22;;;3.04;84.73
13422;BME280;6782;55.904;13.396;2023-03-05T12:27:33;99070.00;;;3.29;84.92
13422;BME280;6782;55.904;13.396;2023-03-05T12:30:54;99039.00;;;3.16;85.13
13422;BME280;6782;55.904;13.396;2023-03-05T12:33:42;98993.38;;;2.99;84.43
13422;BME280;6782;55.904;13.396;2023-03-05T12:36:36;99082.44;;;3.14;85.68
13422;BME280;6782;55.904;13.396;2023-03-05T12:39:47;99212.94;;;3.45;87.46
13422;BME280;6782;55.904;13.396;2023-03-05T12:42:45;99177.31;;;3.46;86.15
13422;BME280;6782;55.904;13.396;2023-03-05T12:45:35;99068.53;;;3.15;85.98
13422;BME280;6782;55.904;13.396;2023-03-05T12:48:44;98992.81;;;2.83;85.29
13422;BME280;6782;55.904;13.396;2023-03-05T12:51:34;99029.81;;;2.99;84.91
13422;BME280;6782;55.904;13.396;2023-03-05T12:54:30;99141.28;;;3.25;86.17
13422;BME280;6782;55.904;13.396;2023-03-05T12:57:18;99090.16;;;3.21;85.97
13422;BME280;6782;55.904;13.396;2023-03-05T13:00:09;99101.28;;;3.29;85.59
13422;BME280;6782;55.904;13.396;2023-03-05T13:02:59;99091.53;;;3.37;85.68
13422;BME280;6782;55.904;13.396;2023-03-05T13:05:52;99081.84;;;3.42;85.20
13422;BME280;6782;55.904;13.396;2023-03-05T13:08:40;99038.06;;;3.21;85.18
13422;BME280;6782;55.904;13.396;2023-03-05T13:11:29;99024.28;;;3.15;85.10
13422;BME280;6782;55.904;13.396;2023-03-05T13:14:36;99092.75;;;3.21;85.82
13422;BME280;6782;55.904;13.396;2023-03-05T13:17:33;99089.28;;;3.18;85.91
13422;BME280;6782;55.904;13.396;2023-03-05T13:20:34;99063.25;;;3.18;85.17
13422;BME280;6782;55.904;13.396;2023-03-05T13:23:25;99002.75;;;3.07;84.57
13422;BME280;6782;55.904;13.396;2023-03-05T13:26:14;99104.00;;;3.21;85.93
13422;BME280;6782;55.904;13.396;2023-03-05T13:29:09;99127.31;;;3.29;85.75
13422;BME280;6782;55.904;13.396;2023-03-05T13:31:59;98989.06;;;2.96;85.07
13422;BME280;6782;55.904;13.396;2023-03-05T13:34:46;99056.81;;;2.93;85.48
13422;BME280;6782;55.904;13.396;2023-03-05T13:37:35;99127.72;;;3.07;86.65
13422;BME280;6782;55.904;13.396;2023-03-05T13:40:27;98968.50;;;2.84;84.01
13422;BME280;6782;55.904;13.396;2023-03-05T13:43:17;99133.88;;;3.03;86.75
13422;BME280;6782;55.904;13.396;2023-03-05T13:46:05;99293.91;;;3.36;88.28
13422;BME280;6782;55.904;13.396;2023-03-05T13:48:53;99124.34;;;3.02;86.21
13422;BME280;6782;55.904;13.396;2023-03-05T13:51:41;99140.47;;;3.21;86.04
13422;BME280;6782;55.904;13.396;2023-03-05T13:54:29;99080.50;;;3.26;85.10
13422;BME280;6782;55.904;13.396;2023-03-05T13:57:37;99001.97;;;3.02;85.14
13422;BME280;6782;55.904;13.396;2023-03-05T14:00:32;99095.06;;;2.91;86.42
13422;BME280;6782;55.904;13.396;2023-03-05T14:03:21;99194.84;;;2.90;87.88
13422;BME280;6782;55.904;13.396;2023-03-05T14:06:09;99216.72;;;2.80;88.37
13422;BME280;6782;55.904;13.396;2023-03-05T14:09:05;99225.44;;;2.79;88.49
13422;BME280;6782;55.904;13.396;2023-03-05T14:11:58;99181.41;;;2.66;87.89
13422;BME280;6782;55.904;13.396;2023-03-05T14:14:48;99224.44;;;2.86;88.08
13422;BME280;6782;55.904;13.396;2023-03-05T14:17:39;99236.59;;;2.86;88.78
13422;BME280;6782;55.904;13.396;2023-03-05T14:20:28;99156.75;;;2.86;87.06
13422;BME280;6782;55.904;13.396;2023-03-05T14:23:25;99017.44;;;2.67;85.42
13422;BME280;6782;55.904;13.396;2023-03-05T14:26:21;98953.59;;;2.51;84.92
13422;BME280;6782;55.904;13.396;2023-03-05T14:29:13;99084.31;;;2.64;86.50
13422;BME280;6782;55.904;13.396;2023-03-05T14:32:05;99158.03;;;2.64;87.37
13422;BME280;6782;55.904;13.396;2023-03-05T14:34:55;99193.47;;;2.71;87.86
13422;BME280;6782;55.904;13.396;2023-03-05T14:37:45;99264.06;;;3.03;88.52
13422;BME280;6782;55.904;13.396;2023-03-05T14:40:35;99286.66;;;3.03;88.99
13422;BME280;6782;55.904;13.396;2023-03-05T14:43:22;99267.38;;;3.13;88.71
13422;BME280;6782;55.904;13.396;2023-03-05T14:46:10;99205.81;;;3.10;87.91
13422;BME280;6782;55.904;13.396;2023-03-05T14:48:58;99207.50;;;3.11;88.73
13422;BME280;6782;55.904;13.396;2023-03-05T14:51:46;99256.84;;;3.21;88.34
13422;BME280;6782;55.904;13.396;2023-03-05T14:54:35;99127.88;;;3.00;88.00